createdAt,value
2016-06-15T00:00:39.721Z,992.94
2016-06-15T00:01:39.710Z,992.91
2016-06-15T00:02:39.697Z,992.93
2016-06-15T00:03:39.684Z,992.92
2016-06-15T00:04:39.672Z,992.93
2016-06-15T00:05:39.659Z,992.91
2016-06-15T00:06:39.647Z,992.91
2016-06-15T00:07:39.634Z,992.93
2016-06-15T00:08:39.606Z,992.85
2016-06-15T00:09:39.593Z,992.9
2016-06-15T00:10:39.581Z,992.91
2016-06-15T00:11:39.568Z,992.89
2016-06-15T00:12:39.556Z,992.9
2016-06-15T00:13:39.543Z,992.86
2016-06-15T00:14:39.531Z,992.89
2016-06-15T00:15:39.518Z,992.91
2016-06-15T00:16:39.506Z,992.89
2016-06-15T00:17:39.493Z,992.9
2016-06-15T00:18:39.480Z,992.9
2016-06-15T00:19:39.483Z,992.87
2016-06-15T00:20:39.455Z,992.88
2016-06-15T00:21:39.444Z,992.84
2016-06-15T00:22:39.430Z,992.84
2016-06-15T00:23:39.418Z,992.81
2016-06-15T00:24:39.405Z,992.77
2016-06-15T00:25:39.393Z,992.77
2016-06-15T00:26:39.379Z,992.77
2016-06-15T00:27:39.368Z,992.82
2016-06-15T00:28:39.354Z,992.8
2016-06-15T00:29:39.343Z,992.81
2016-06-15T00:30:39.313Z,992.79
2016-06-15T00:31:39.317Z,992.74
2016-06-15T00:32:39.289Z,992.79
2016-06-15T00:33:39.292Z,992.77
2016-06-15T00:34:39.264Z,992.78
2016-06-15T00:35:39.251Z,992.77
2016-06-15T00:36:39.240Z,992.78
2016-06-15T00:37:39.226Z,992.82
2016-06-15T00:38:39.213Z,992.75
2016-06-15T00:39:39.202Z,992.77
2016-06-15T00:40:39.189Z,992.76
2016-06-15T00:41:39.175Z,992.71
2016-06-15T00:42:39.164Z,992.73
2016-06-15T00:43:39.151Z,992.72
2016-06-15T00:44:39.139Z,992.69
2016-06-15T00:45:39.126Z,992.69
2016-06-15T00:46:39.113Z,992.67
2016-06-15T00:47:39.101Z,992.71
2016-06-15T00:48:39.088Z,992.7
2016-06-15T00:49:39.075Z,992.68
2016-06-15T00:50:39.047Z,992.73
2016-06-15T00:51:39.051Z,992.7
2016-06-15T00:52:39.022Z,992.74
2016-06-15T00:53:39.010Z,992.71
2016-06-15T00:54:38.998Z,992.69
2016-06-15T00:55:38.985Z,992.7
2016-06-15T00:56:38.972Z,992.7
2016-06-15T00:57:38.960Z,992.71
2016-06-15T00:58:38.978Z,992.69
2016-06-15T00:59:39.002Z,992.66
2016-06-15T01:00:39.042Z,992.64
2016-06-15T01:01:39.049Z,992.69
2016-06-15T01:02:39.073Z,992.66
2016-06-15T01:03:39.078Z,992.7
2016-06-15T01:04:39.188Z,992.73
2016-06-15T01:05:39.079Z,992.65
2016-06-15T01:06:39.079Z,992.68
2016-06-15T01:07:39.080Z,992.7
2016-06-15T01:08:39.073Z,992.72
2016-06-15T01:09:39.066Z,992.77
2016-06-15T01:10:39.042Z,992.73
2016-06-15T01:11:39.145Z,992.73
2016-06-15T01:12:39.042Z,992.71
2016-06-15T01:13:39.017Z,992.73
2016-06-15T01:14:39.006Z,992.71
2016-06-15T01:15:38.995Z,992.73
2016-06-15T01:16:38.984Z,992.73
2016-06-15T01:17:38.973Z,992.73
2016-06-15T01:18:38.962Z,992.73
2016-06-15T01:19:39.153Z,992.77
2016-06-15T01:20:38.938Z,992.78
2016-06-15T01:21:38.926Z,992.79
2016-06-15T01:22:38.915Z,992.82
2016-06-15T01:23:38.902Z,992.81
2016-06-15T01:24:38.889Z,992.82
2016-06-15T01:25:38.877Z,992.8
2016-06-15T01:26:38.864Z,992.8
2016-06-15T01:27:39.196Z,992.78
2016-06-15T01:28:38.839Z,992.77
2016-06-15T01:29:38.827Z,992.79
2016-06-15T01:30:38.814Z,992.76
2016-06-15T01:31:38.802Z,992.72
2016-06-15T01:32:38.788Z,992.76
2016-06-15T01:33:38.761Z,992.8
2016-06-15T01:34:38.763Z,992.76
2016-06-15T01:35:39.189Z,992.79
2016-06-15T01:36:38.722Z,992.73
2016-06-15T01:37:38.711Z,992.74
2016-06-15T01:38:38.698Z,992.78
2016-06-15T01:39:38.685Z,992.75
2016-06-15T01:40:38.673Z,992.77
2016-06-15T01:41:38.660Z,992.77
2016-06-15T01:42:38.647Z,992.79
2016-06-15T01:43:39.182Z,992.76
2016-06-15T01:44:38.623Z,992.77
2016-06-15T01:45:38.610Z,992.78
2016-06-15T01:46:38.597Z,992.77
2016-06-15T01:47:38.584Z,992.76
2016-06-15T01:48:38.573Z,992.8
2016-06-15T01:49:38.560Z,992.77
2016-06-15T01:50:38.594Z,992.72
2016-06-15T01:51:39.238Z,992.75
2016-06-15T01:52:38.522Z,992.74
2016-06-15T01:53:38.510Z,992.75
2016-06-15T01:54:38.497Z,992.77
2016-06-15T01:55:38.469Z,992.73
2016-06-15T01:56:38.472Z,992.7
2016-06-15T01:57:38.443Z,992.71
2016-06-15T01:58:38.446Z,992.7
2016-06-15T01:59:38.482Z,992.7
2016-06-15T02:00:38.422Z,992.7
2016-06-15T02:01:38.394Z,992.72
2016-06-15T02:02:38.381Z,992.69
2016-06-15T02:03:38.369Z,992.66
2016-06-15T02:04:38.356Z,992.69
2016-06-15T02:05:38.343Z,992.69
2016-06-15T02:06:38.331Z,992.68
2016-06-15T02:07:38.521Z,992.7
2016-06-15T02:08:38.306Z,992.71
2016-06-15T02:09:38.293Z,992.68
2016-06-15T02:10:38.280Z,992.68
2016-06-15T02:11:38.269Z,992.68
2016-06-15T02:12:38.256Z,992.69
2016-06-15T02:13:38.243Z,992.7
2016-06-15T02:14:38.231Z,992.68
2016-06-15T02:15:38.515Z,992.69
2016-06-15T02:16:38.190Z,992.71
2016-06-15T02:17:38.193Z,992.68
2016-06-15T02:18:38.165Z,992.68
2016-06-15T02:19:38.152Z,992.68
2016-06-15T02:20:38.155Z,992.72
2016-06-15T02:21:38.127Z,992.76
2016-06-15T02:22:38.115Z,992.68
2016-06-15T02:23:38.555Z,992.72
2016-06-15T02:24:38.090Z,992.71
2016-06-15T02:25:38.076Z,992.71
2016-06-15T02:26:38.079Z,992.75
2016-06-15T02:27:38.051Z,992.74
2016-06-15T02:28:38.039Z,992.69
2016-06-15T02:29:38.026Z,992.72
2016-06-15T02:30:38.014Z,992.7
2016-06-15T02:31:38.001Z,992.72
2016-06-15T02:32:37.989Z,992.7
2016-06-15T02:33:37.976Z,992.69
2016-06-15T02:34:37.964Z,992.67
2016-06-15T02:35:37.951Z,992.67
2016-06-15T02:36:37.938Z,992.64
2016-06-15T02:37:37.926Z,992.61
2016-06-15T02:38:37.898Z,992.65
2016-06-15T02:39:37.885Z,992.61
2016-06-15T02:40:37.888Z,992.66
2016-06-15T02:41:37.861Z,992.67
2016-06-15T02:42:37.863Z,992.66
2016-06-15T02:43:37.835Z,992.58
2016-06-15T02:44:37.823Z,992.62
2016-06-15T02:45:37.810Z,992.64
2016-06-15T02:46:37.798Z,992.63
2016-06-15T02:47:37.785Z,992.65
2016-06-15T02:48:37.772Z,992.66
2016-06-15T02:49:37.760Z,992.65
2016-06-15T02:50:37.748Z,992.62
2016-06-15T02:51:37.734Z,992.61
2016-06-15T02:52:37.723Z,992.62
2016-06-15T02:53:37.709Z,992.66
2016-06-15T02:54:37.698Z,992.66
2016-06-15T02:55:37.685Z,992.68
2016-06-15T02:56:37.672Z,992.65
2016-06-15T02:57:37.659Z,992.61
2016-06-15T02:58:37.631Z,992.61
2016-06-15T02:59:37.633Z,992.6
2016-06-15T03:00:37.606Z,992.6
2016-06-15T03:01:37.594Z,992.63
2016-06-15T03:02:37.582Z,992.61
2016-06-15T03:03:37.568Z,992.62
2016-06-15T03:04:37.556Z,992.65
2016-06-15T03:05:37.543Z,992.66
2016-06-15T03:06:37.531Z,992.68
2016-06-15T03:07:37.519Z,992.65
2016-06-15T03:08:37.506Z,992.67
2016-06-15T03:09:37.494Z,992.66
2016-06-15T03:10:37.480Z,992.66
2016-06-15T03:11:37.468Z,992.68
2016-06-15T03:12:37.456Z,992.68
2016-06-15T03:13:37.443Z,992.7
2016-06-15T03:14:37.430Z,992.7
2016-06-15T03:15:37.418Z,992.71
2016-06-15T03:16:37.405Z,992.67
2016-06-15T03:17:37.394Z,992.65
2016-06-15T03:18:37.364Z,992.66
2016-06-15T03:19:37.367Z,992.65
2016-06-15T03:20:37.355Z,992.65
2016-06-15T03:21:37.326Z,992.63
2016-06-15T03:22:37.314Z,992.62
2016-06-15T03:23:37.302Z,992.67
2016-06-15T03:24:37.289Z,992.61
2016-06-15T03:25:37.277Z,992.59
2016-06-15T03:26:37.264Z,992.6
2016-06-15T03:27:37.252Z,992.6
2016-06-15T03:28:37.239Z,992.59
2016-06-15T03:29:37.226Z,992.58
2016-06-15T03:30:37.214Z,992.54
2016-06-15T03:31:37.201Z,992.57
2016-06-15T03:32:37.189Z,992.53
2016-06-15T03:33:37.176Z,992.57
2016-06-15T03:34:37.164Z,992.55
2016-06-15T03:35:37.213Z,992.56
2016-06-15T03:36:37.139Z,992.53
2016-06-15T03:37:37.126Z,992.52
2016-06-15T03:38:37.114Z,992.52
2016-06-15T03:39:37.101Z,992.47
2016-06-15T03:40:37.073Z,992.47
2016-06-15T03:41:37.060Z,992.44
2016-06-15T03:42:37.048Z,992.49
2016-06-15T03:43:37.035Z,992.49
2016-06-15T03:44:37.022Z,992.5
2016-06-15T03:45:37.011Z,992.53
2016-06-15T03:46:36.997Z,992.52
2016-06-15T03:47:36.986Z,992.51
2016-06-15T03:48:36.972Z,992.5
2016-06-15T03:49:36.960Z,992.5
2016-06-15T03:50:36.947Z,992.49
2016-06-15T03:51:36.935Z,992.54
2016-06-15T03:52:36.921Z,992.5
2016-06-15T03:53:36.910Z,992.51
2016-06-15T03:54:36.896Z,992.51
2016-06-15T03:55:36.885Z,992.49
2016-06-15T03:56:36.872Z,992.49
2016-06-15T03:57:36.859Z,992.54
2016-06-15T03:58:36.848Z,992.52
2016-06-15T03:59:36.834Z,992.51
2016-06-15T04:00:36.821Z,992.53
2016-06-15T04:01:36.810Z,992.55
2016-06-15T04:02:36.796Z,992.53
2016-06-15T04:03:36.785Z,992.5
2016-06-15T04:04:36.755Z,992.51
2016-06-15T04:05:36.759Z,992.49
2016-06-15T04:06:36.731Z,992.49
2016-06-15T04:07:36.718Z,992.49
2016-06-15T04:08:36.706Z,992.47
2016-06-15T04:09:36.693Z,992.51
2016-06-15T04:10:36.681Z,992.49
2016-06-15T04:11:36.668Z,992.51
2016-06-15T04:12:36.655Z,992.45
2016-06-15T04:13:36.643Z,992.49
2016-06-15T04:14:36.630Z,992.5
2016-06-15T04:15:36.618Z,992.51
2016-06-15T04:16:36.605Z,992.49
2016-06-15T04:17:36.593Z,992.48
2016-06-15T04:18:36.581Z,992.48
2016-06-15T04:19:36.568Z,992.51
2016-06-15T04:20:36.680Z,992.49
2016-06-15T04:21:36.543Z,992.54
2016-06-15T04:22:36.530Z,992.5
2016-06-15T04:23:36.517Z,992.52
2016-06-15T04:24:36.490Z,992.48
2016-06-15T04:25:36.477Z,992.49
2016-06-15T04:26:36.496Z,992.54
2016-06-15T04:27:36.451Z,992.55
2016-06-15T04:28:36.440Z,992.56
2016-06-15T04:29:36.427Z,992.51
2016-06-15T04:30:36.414Z,992.56
2016-06-15T04:31:36.402Z,992.6
2016-06-15T04:32:36.389Z,992.56
2016-06-15T04:33:36.377Z,992.54
2016-06-15T04:34:36.364Z,992.58
2016-06-15T04:35:36.351Z,992.59
2016-06-15T04:36:36.339Z,992.59
2016-06-15T04:37:36.326Z,992.6
2016-06-15T04:38:36.313Z,992.59
2016-06-15T04:39:36.301Z,992.6
2016-06-15T04:40:36.289Z,992.65
2016-06-15T04:41:36.260Z,992.69
2016-06-15T04:42:36.247Z,992.69
2016-06-15T04:43:36.235Z,992.66
2016-06-15T04:44:36.222Z,992.69
2016-06-15T04:45:36.209Z,992.67
2016-06-15T04:46:36.213Z,992.69
2016-06-15T04:47:36.184Z,992.69
2016-06-15T04:48:36.204Z,992.68
2016-06-15T04:49:36.160Z,992.65
2016-06-15T04:50:36.147Z,992.68
2016-06-15T04:51:36.135Z,992.67
2016-06-15T04:52:36.122Z,992.72
2016-06-15T04:53:36.109Z,992.72
2016-06-15T04:54:36.097Z,992.73
2016-06-15T04:55:36.084Z,992.76
2016-06-15T04:56:36.087Z,992.78
2016-06-15T04:57:36.060Z,992.75
2016-06-15T04:58:36.046Z,992.76
2016-06-15T04:59:36.035Z,992.77
2016-06-15T05:00:36.021Z,992.75
2016-06-15T05:01:35.994Z,992.78
2016-06-15T05:02:35.981Z,992.77
2016-06-15T05:03:35.969Z,992.76
2016-06-15T05:04:35.956Z,992.78
2016-06-15T05:05:35.943Z,992.78
2016-06-15T05:06:35.931Z,992.76
2016-06-15T05:07:35.918Z,992.74
2016-06-15T05:08:35.906Z,992.71
2016-06-15T05:09:35.893Z,992.75
2016-06-15T05:10:35.881Z,992.77
2016-06-15T05:11:35.868Z,992.76
2016-06-15T05:12:35.856Z,992.75
2016-06-15T05:13:35.859Z,992.75
2016-06-15T05:14:35.831Z,992.78
2016-06-15T05:15:35.818Z,992.83
2016-06-15T05:16:35.805Z,992.79
2016-06-15T05:17:35.793Z,992.77
2016-06-15T05:18:35.780Z,992.79
2016-06-15T05:19:35.769Z,992.8
2016-06-15T05:20:35.755Z,992.8
2016-06-15T05:21:36.181Z,992.82
2016-06-15T05:22:35.730Z,992.82
2016-06-15T05:23:35.718Z,992.84
2016-06-15T05:24:35.704Z,992.87
2016-06-15T05:25:35.677Z,992.87
2016-06-15T05:26:35.679Z,992.9
2016-06-15T05:27:35.652Z,992.87
2016-06-15T05:28:35.639Z,992.88
2016-06-15T05:29:35.627Z,992.82
2016-06-15T05:30:35.614Z,992.85
2016-06-15T05:31:35.617Z,992.91
2016-06-15T05:32:35.589Z,992.9
2016-06-15T05:33:35.576Z,992.89
2016-06-15T05:34:35.564Z,992.93
2016-06-15T05:35:35.552Z,992.9
2016-06-15T05:36:35.554Z,992.86
2016-06-15T05:37:35.526Z,992.89
2016-06-15T05:38:35.513Z,992.86
2016-06-15T05:39:35.500Z,992.91
2016-06-15T05:40:35.488Z,992.89
2016-06-15T05:41:35.476Z,992.88
2016-06-15T05:42:35.604Z,992.9
2016-06-15T05:43:35.450Z,992.91
2016-06-15T05:44:35.423Z,992.94
2016-06-15T05:45:35.410Z,992.98
2016-06-15T05:46:35.398Z,992.96
2016-06-15T05:47:35.385Z,992.95
2016-06-15T05:48:35.373Z,992.93
2016-06-15T05:49:35.360Z,992.97
2016-06-15T05:50:35.706Z,992.99
2016-06-15T05:51:36.131Z,992.98
2016-06-15T05:52:35.323Z,992.99
2016-06-15T05:53:35.309Z,992.98
2016-06-15T05:54:35.297Z,992.97
2016-06-15T05:55:35.284Z,992.98
2016-06-15T05:56:35.272Z,993.01
2016-06-15T05:57:35.260Z,993.04
2016-06-15T05:58:35.591Z,993
2016-06-15T05:59:35.234Z,993.04
2016-06-15T06:00:35.206Z,993.01
2016-06-15T06:01:35.209Z,993.02
2016-06-15T06:02:35.197Z,993.05
2016-06-15T06:03:35.168Z,993.03
2016-06-15T06:04:35.157Z,992.96
2016-06-15T06:05:35.143Z,993
2016-06-15T06:06:35.583Z,993.02
2016-06-15T06:07:35.119Z,992.99
2016-06-15T06:08:35.106Z,992.96
2016-06-15T06:09:35.092Z,993
2016-06-15T06:10:35.081Z,992.98
2016-06-15T06:11:35.068Z,993.02
2016-06-15T06:12:35.056Z,992.99
2016-06-15T06:13:35.044Z,993.05
2016-06-15T06:14:35.624Z,993
2016-06-15T06:15:35.019Z,993.05
2016-06-15T06:16:35.005Z,993.03
2016-06-15T06:17:34.993Z,993.02
2016-06-15T06:18:34.964Z,993.05
2016-06-15T06:19:34.953Z,993.03
2016-06-15T06:20:35.971Z,993.06
2016-06-15T06:21:34.927Z,993.09
2016-06-15T06:22:35.618Z,993.07
2016-06-15T06:23:34.902Z,993.08
2016-06-15T06:24:34.889Z,993.09
2016-06-15T06:25:34.877Z,993.1
2016-06-15T06:26:34.864Z,993.08
2016-06-15T06:27:34.852Z,993.12
2016-06-15T06:28:34.839Z,993.17
2016-06-15T06:29:34.827Z,993.13
2016-06-15T06:30:35.767Z,993.19
2016-06-15T06:31:34.802Z,993.21
2016-06-15T06:32:34.788Z,993.21
2016-06-15T06:33:34.777Z,993.26
2016-06-15T06:34:34.764Z,993.21
2016-06-15T06:35:34.752Z,993.21
2016-06-15T06:36:34.739Z,993.19
2016-06-15T06:37:34.710Z,993.2
2016-06-15T06:38:34.901Z,993.23
2016-06-15T06:39:34.685Z,993.21
2016-06-15T06:40:34.673Z,993.21
2016-06-15T06:41:34.660Z,993.23
2016-06-15T06:42:34.648Z,993.27
2016-06-15T06:43:34.791Z,993.21
2016-06-15T06:44:34.622Z,993.22
2016-06-15T06:45:34.611Z,993.24
2016-06-15T06:46:34.956Z,993.28
2016-06-15T06:47:34.585Z,993.26
2016-06-15T06:48:34.572Z,993.28
2016-06-15T06:49:34.560Z,993.27
2016-06-15T06:50:34.548Z,993.29
2016-06-15T06:51:34.535Z,993.3
2016-06-15T06:52:34.522Z,993.3
2016-06-15T06:53:34.510Z,993.32
2016-06-15T06:54:35.841Z,993.3
2016-06-15T06:55:34.470Z,993.34
2016-06-15T06:56:34.472Z,993.34
2016-06-15T06:57:34.445Z,993.36
2016-06-15T06:58:34.431Z,993.4
2016-06-15T06:59:34.419Z,993.35
2016-06-15T07:00:34.407Z,993.37
2016-06-15T07:01:34.394Z,993.36
2016-06-15T07:02:34.381Z,993.4
2016-06-15T07:03:34.369Z,993.39
2016-06-15T07:04:34.356Z,993.44
2016-06-15T07:05:34.344Z,993.44
2016-06-15T07:06:34.331Z,993.4
2016-06-15T07:07:34.318Z,993.42
2016-06-15T07:08:34.290Z,993.42
2016-06-15T07:09:34.277Z,993.43
2016-06-15T07:10:34.265Z,993.49
2016-06-15T07:11:34.253Z,993.39
2016-06-15T07:12:34.240Z,993.42
2016-06-15T07:13:34.228Z,993.41
2016-06-15T07:14:34.214Z,993.41
2016-06-15T07:15:34.187Z,993.42
2016-06-15T07:16:34.174Z,993.43
2016-06-15T07:17:34.162Z,993.4
2016-06-15T07:18:34.149Z,993.41
2016-06-15T07:19:34.152Z,993.41
2016-06-15T07:20:34.124Z,993.35
2016-06-15T07:21:34.112Z,993.4
2016-06-15T07:22:34.099Z,993.38
2016-06-15T07:23:34.086Z,993.43
2016-06-15T07:24:34.073Z,993.38
2016-06-15T07:25:34.062Z,993.37
2016-06-15T07:26:34.033Z,993.45
2016-06-15T07:27:34.021Z,993.39
2016-06-15T07:28:34.024Z,993.41
2016-06-15T07:29:33.996Z,993.42
2016-06-15T07:30:33.983Z,993.45
2016-06-15T07:31:33.970Z,993.42
2016-06-15T07:32:33.958Z,993.41
2016-06-15T07:33:33.930Z,993.37
2016-06-15T07:34:33.917Z,993.42
2016-06-15T07:35:33.904Z,993.4
2016-06-15T07:36:34.032Z,993.43
2016-06-15T07:37:33.879Z,993.44
2016-06-15T07:38:33.866Z,993.42
2016-06-15T07:39:33.854Z,993.45
2016-06-15T07:40:33.842Z,993.44
2016-06-15T07:41:33.814Z,993.41
2016-06-15T07:42:33.800Z,993.46
2016-06-15T07:43:33.789Z,993.4
2016-06-15T07:44:33.776Z,993.39
2016-06-15T07:45:34.248Z,993.43
2016-06-15T07:46:33.751Z,993.45
2016-06-15T07:47:33.738Z,993.4
2016-06-15T07:48:33.710Z,993.39
2016-06-15T07:49:33.697Z,993.41
2016-06-15T07:50:33.700Z,993.46
2016-06-15T07:51:34.344Z,993.45
2016-06-15T07:52:33.660Z,993.43
2016-06-15T07:53:33.647Z,993.44
2016-06-15T07:54:33.634Z,993.5
2016-06-15T07:55:33.623Z,993.49
2016-06-15T07:56:33.594Z,993.49
2016-06-15T07:57:33.582Z,993.48
2016-06-15T07:58:33.568Z,993.47
2016-06-15T07:59:33.556Z,993.47
2016-06-15T08:00:33.544Z,993.46
2016-06-15T08:01:33.531Z,993.48
2016-06-15T08:02:33.519Z,993.48
2016-06-15T08:03:33.490Z,993.44
2016-06-15T08:04:33.478Z,993.45
2016-06-15T08:05:33.465Z,993.46
2016-06-15T08:06:33.453Z,993.44
2016-06-15T08:07:33.440Z,993.44
2016-06-15T08:08:33.428Z,993.43
2016-06-15T08:09:33.416Z,993.47
2016-06-15T08:10:33.402Z,993.4
2016-06-15T08:11:33.375Z,993.37
2016-06-15T08:12:33.361Z,993.32
2016-06-15T08:13:33.349Z,993.34
2016-06-15T08:14:33.337Z,993.29
2016-06-15T08:15:33.324Z,993.31
2016-06-15T08:16:33.313Z,993.26
2016-06-15T08:17:33.299Z,993.29
2016-06-15T08:18:33.286Z,993.26
2016-06-15T08:19:33.258Z,993.28
2016-06-15T08:20:33.261Z,993.25
2016-06-15T08:21:33.234Z,993.29
2016-06-15T08:22:33.220Z,993.26
2016-06-15T08:23:33.209Z,993.29
2016-06-15T08:24:33.196Z,993.26
2016-06-15T08:25:33.183Z,993.29
2016-06-15T08:26:33.171Z,993.27
2016-06-15T08:27:33.158Z,993.27
2016-06-15T08:28:33.130Z,993.27
2016-06-15T08:29:33.117Z,993.27
2016-06-15T08:30:33.105Z,993.25
2016-06-15T08:31:33.092Z,993.28
2016-06-15T08:32:33.080Z,993.26
2016-06-15T08:33:33.067Z,993.27
2016-06-15T08:34:33.039Z,993.27
2016-06-15T08:35:33.042Z,993.24
2016-06-15T08:36:33.014Z,993.23
2016-06-15T08:37:33.002Z,993.21
2016-06-15T08:38:32.988Z,993.2
2016-06-15T08:39:32.976Z,993.25
2016-06-15T08:40:32.964Z,993.23
2016-06-15T08:41:32.951Z,993.24
2016-06-15T08:42:32.923Z,993.19
2016-06-15T08:43:32.910Z,993.16
2016-06-15T08:44:32.898Z,993.15
2016-06-15T08:45:32.886Z,993.08
2016-06-15T08:46:32.872Z,993.1
2016-06-15T08:47:32.861Z,993.09
2016-06-15T08:48:32.847Z,993.07
2016-06-15T08:49:32.819Z,993.11
2016-06-15T08:50:32.823Z,993.07
2016-06-15T08:51:32.809Z,993.12
2016-06-15T08:52:32.782Z,993.08
2016-06-15T08:53:32.768Z,993.09
2016-06-15T08:54:32.757Z,993.08
2016-06-15T08:55:32.744Z,993.1
2016-06-15T08:56:32.731Z,993.03
2016-06-15T08:57:32.703Z,993.03
2016-06-15T08:58:32.691Z,993.02
2016-06-15T08:59:32.678Z,993.05
2016-06-15T09:00:32.665Z,993.04
2016-06-15T09:01:32.654Z,993.08
2016-06-15T09:02:32.641Z,993.1
2016-06-15T09:03:32.628Z,993.12
2016-06-15T09:04:32.616Z,993.14
2016-06-15T09:05:32.588Z,993.1
2016-06-15T09:06:32.575Z,993.1
2016-06-15T09:07:32.594Z,993.09
2016-06-15T09:08:32.551Z,993.12
2016-06-15T09:09:32.537Z,993.12
2016-06-15T09:10:32.524Z,993.1
2016-06-15T09:11:32.513Z,993.11
2016-06-15T09:12:32.484Z,993.12
2016-06-15T09:13:34.692Z,993.15
2016-06-15T09:14:32.434Z,993.22
2016-06-15T09:15:45.362Z,993.2
2016-06-15T09:16:32.424Z,993.23
2016-06-15T09:17:32.412Z,993.22
2016-06-15T09:18:32.400Z,993.21
2016-06-15T09:19:32.386Z,993.23
2016-06-15T09:20:32.374Z,993.28
2016-06-15T09:21:32.378Z,993.21
2016-06-15T09:22:32.786Z,993.29
2016-06-15T09:23:32.321Z,993.29
2016-06-15T09:24:32.308Z,993.33
2016-06-15T09:25:32.296Z,993.23
2016-06-15T09:26:32.282Z,993.23
2016-06-15T09:27:32.271Z,993.22
2016-06-15T09:28:32.258Z,993.24
2016-06-15T09:29:32.240Z,993.26
2016-06-15T09:30:32.227Z,993.28
2016-06-15T09:31:32.214Z,993.24
2016-06-15T09:32:32.203Z,993.25
2016-06-15T09:33:32.190Z,993.25
2016-06-15T09:34:32.177Z,993.3
2016-06-15T09:35:32.149Z,993.26
2016-06-15T09:36:32.137Z,993.24
2016-06-15T09:37:32.123Z,993.3
2016-06-15T09:38:32.110Z,993.37
2016-06-15T09:39:32.098Z,993.51
2016-06-15T09:40:32.086Z,993.57
2016-06-15T09:41:32.074Z,993.56
2016-06-15T09:42:32.061Z,993.61
2016-06-15T09:43:32.048Z,993.64
2016-06-15T09:44:32.036Z,993.6
2016-06-15T09:45:32.024Z,993.55
2016-06-15T09:46:32.010Z,993.48
2016-06-15T09:47:31.982Z,993.47
2016-06-15T09:48:31.970Z,993.46
2016-06-15T09:49:31.958Z,993.44
2016-06-15T09:50:31.944Z,993.4
2016-06-15T09:51:31.933Z,993.43
2016-06-15T09:52:31.920Z,993.4
2016-06-15T09:53:32.095Z,993.45
2016-06-15T09:54:31.894Z,993.42
2016-06-15T09:55:31.882Z,993.44
2016-06-15T09:56:31.870Z,993.43
2016-06-15T09:57:31.951Z,993.39
2016-06-15T09:58:31.829Z,993.41
2016-06-15T09:59:31.833Z,993.41
2016-06-15T10:00:31.803Z,993.42
2016-06-15T10:01:31.791Z,993.41
2016-06-15T10:02:31.778Z,993.48
2016-06-15T10:03:31.766Z,993.54
2016-06-15T10:04:31.772Z,993.52
2016-06-15T10:05:32.002Z,993.45
2016-06-15T10:06:31.827Z,993.47
2016-06-15T10:07:31.855Z,993.48
2016-06-15T10:08:31.881Z,993.5
2016-06-15T10:09:31.881Z,993.43
2016-06-15T10:10:31.884Z,993.45
2016-06-15T10:11:31.884Z,993.43
2016-06-15T10:12:31.902Z,993.39
2016-06-15T10:13:32.248Z,993.49
2016-06-15T10:14:31.886Z,993.47
2016-06-15T10:15:31.878Z,993.49
2016-06-15T10:16:31.886Z,993.42
2016-06-15T10:17:47.802Z,993.46
2016-06-15T10:18:31.857Z,993.45
2016-06-15T10:19:31.848Z,993.47
2016-06-15T10:20:31.837Z,993.47
2016-06-15T10:21:32.420Z,993.45
2016-06-15T10:22:31.972Z,993.47
2016-06-15T10:23:31.790Z,993.45
2016-06-15T10:24:31.794Z,993.51
2016-06-15T10:25:31.767Z,993.53
2016-06-15T10:26:31.755Z,993.56
2016-06-15T10:27:31.741Z,993.57
2016-06-15T10:28:31.730Z,993.58
2016-06-15T10:29:32.265Z,993.6
2016-06-15T10:30:31.705Z,993.59
2016-06-15T10:31:31.693Z,993.61
2016-06-15T10:32:31.681Z,993.63
2016-06-15T10:33:31.669Z,993.63
2016-06-15T10:34:31.657Z,993.59
2016-06-15T10:35:32.754Z,993.62
2016-06-15T10:36:32.835Z,993.57
2016-06-15T10:37:34.370Z,993.56
2016-06-15T10:38:33.872Z,993.55
2016-06-15T10:39:31.953Z,993.57
2016-06-15T10:40:44.551Z,993.58
2016-06-15T10:41:43.570Z,993.55
2016-06-15T10:42:47.838Z,993.6
2016-06-15T10:43:43.404Z,993.59
2016-06-15T10:44:43.391Z,993.6
2016-06-15T10:45:43.519Z,993.56
2016-06-15T10:46:55.226Z,993.62
2016-06-15T10:47:51.197Z,993.55
2016-06-15T10:48:57.934Z,993.54
2016-06-15T10:50:05.813Z,993.57
2016-06-15T10:51:00.535Z,993.53
2016-06-15T10:52:07.007Z,993.51
2016-06-15T10:53:17.966Z,993.51
2016-06-15T10:54:21.078Z,993.47
2016-06-15T10:55:48.316Z,993.5
2016-06-15T10:56:48.303Z,993.49
2016-06-15T10:57:48.337Z,993.46
2016-06-15T10:58:48.278Z,993.46
2016-06-15T10:59:48.266Z,993.51
2016-06-15T11:00:48.254Z,993.47
2016-06-15T11:01:48.288Z,993.52
2016-06-15T11:02:48.228Z,993.56
2016-06-15T11:03:48.200Z,993.59
2016-06-15T11:04:48.187Z,993.63
2016-06-15T11:05:48.331Z,993.63
2016-06-15T11:06:48.163Z,993.64
2016-06-15T11:07:48.150Z,993.64
2016-06-15T11:08:48.137Z,993.65
2016-06-15T11:09:48.125Z,993.61
2016-06-15T11:10:48.112Z,993.62
2016-06-15T11:11:48.100Z,993.6
2016-06-15T11:12:48.072Z,993.59
2016-06-15T11:13:48.512Z,993.57
2016-06-15T11:14:48.046Z,993.53
2016-06-15T11:15:48.034Z,993.56
2016-06-15T11:16:48.021Z,993.59
2016-06-15T11:17:48.009Z,993.63
2016-06-15T11:18:47.997Z,993.58
2016-06-15T11:19:47.983Z,993.63
2016-06-15T11:20:47.972Z,993.63
2016-06-15T11:21:48.412Z,993.64
2016-06-15T11:22:47.946Z,993.61
2016-06-15T11:23:47.933Z,993.63
2016-06-15T11:24:47.921Z,993.64
2016-06-15T11:25:47.908Z,993.6
2016-06-15T11:26:47.896Z,993.64
2016-06-15T11:27:47.868Z,993.67
2016-06-15T11:28:47.854Z,993.65
2016-06-15T11:29:48.389Z,993.69
2016-06-15T11:30:47.861Z,993.65
2016-06-15T11:31:47.817Z,993.73
2016-06-15T11:32:47.805Z,993.66
2016-06-15T11:33:47.792Z,993.67
2016-06-15T11:34:47.779Z,993.66
2016-06-15T11:35:47.768Z,993.65
2016-06-15T11:36:47.755Z,993.66
2016-06-15T11:37:48.382Z,993.68
2016-06-15T11:38:47.729Z,993.62
2016-06-15T11:39:47.716Z,993.64
2016-06-15T11:40:47.704Z,993.64
2016-06-15T11:41:47.692Z,993.61
2016-06-15T11:42:47.664Z,993.61
2016-06-15T11:43:47.651Z,993.61
2016-06-15T11:44:47.654Z,993.61
2016-06-15T11:45:48.532Z,993.63
2016-06-15T11:46:47.614Z,993.63
2016-06-15T11:47:47.601Z,993.6
2016-06-15T11:48:47.588Z,993.56
2016-06-15T11:49:47.576Z,993.5
2016-06-15T11:50:47.563Z,993.51
2016-06-15T11:51:47.551Z,993.53
2016-06-15T11:52:47.539Z,993.52
2016-06-15T11:53:47.667Z,993.47
2016-06-15T11:54:47.513Z,993.53
2016-06-15T11:55:47.500Z,993.52
2016-06-15T11:56:47.472Z,993.57
2016-06-15T11:57:47.460Z,993.52
2016-06-15T11:58:47.447Z,993.52
2016-06-15T11:59:47.436Z,993.5
2016-06-15T12:00:47.422Z,993.48
2016-06-15T12:01:48.457Z,993.46
2016-06-15T12:02:47.398Z,993.49
2016-06-15T12:03:47.385Z,993.48
2016-06-15T12:04:47.372Z,993.47
2016-06-15T12:05:47.359Z,993.45
2016-06-15T12:06:47.347Z,993.45
2016-06-15T12:07:47.505Z,993.45
2016-06-15T12:08:47.322Z,993.48
2016-06-15T12:09:47.700Z,993.44
2016-06-15T12:10:47.281Z,993.45
2016-06-15T12:11:47.284Z,993.44
2016-06-15T12:12:47.271Z,993.43
2016-06-15T12:13:47.243Z,993.42
2016-06-15T12:14:47.232Z,993.41
2016-06-15T12:15:47.219Z,993.45
2016-06-15T12:16:47.205Z,993.41
2016-06-15T12:17:47.693Z,993.41
2016-06-15T12:18:47.181Z,993.4
2016-06-15T12:19:47.168Z,993.38
2016-06-15T12:20:47.156Z,993.43
2016-06-15T12:21:47.143Z,993.47
2016-06-15T12:22:47.551Z,993.48
2016-06-15T12:23:47.118Z,993.53
2016-06-15T12:24:47.105Z,993.59
2016-06-15T12:25:47.093Z,993.58
2016-06-15T12:26:47.080Z,993.6
2016-06-15T12:27:47.083Z,993.67
2016-06-15T12:28:47.055Z,993.75
2016-06-15T12:29:47.043Z,993.74
2016-06-15T12:30:47.046Z,993.8
2016-06-15T12:31:47.018Z,993.81
2016-06-15T12:32:46.989Z,993.83